sensor_id;sensor_type;location;lat;lon;timestamp;pressure;altitude;pressure_sealevel;temperature;humidity
29371;BME280;16357;52.188;7.838;2023-02-19T00:01:14;100817.03;;;12.63;69.23
29371;BME280;16357;52.188;7.838;2023-02-19T00:03:42;100818.19;;;12.60;69.28
29371;BME280;16357;52.188;7.838;2023-02-19T00:06:12;100811.97;;;12.60;69.24
29371;BME280;16357;52.188;7.838;2023-02-19T00:08:39;100816.53;;;12.59;69.21
29371;BME280;16357;52.188;7.838;2023-02-19T00:11:07;100825.59;;;12.58;69.39
29371;BME280;16357;52.188;7.838;2023-02-19T00:13:41;100817.50;;;12.58;69.39
29371;BME280;16357;52.188;7.838;2023-02-19T00:16:16;100814.00;;;12.58;69.44
29371;BME280;16357;52.188;7.838;2023-02-19T00:18:43;100807.94;;;12.56;69.55
29371;BME280;16357;52.188;7.838;2023-02-19T00:21:11;100809.78;;;12.55;69.60
29371;BME280;16357;52.188;7.838;2023-02-19T00:23:38;100804.41;;;12.55;69.66
29371;BME280;16357;52.188;7.838;2023-02-19T00:26:06;100811.63;;;12.55;69.71
29371;BME280;16357;52.188;7.838;2023-02-19T00:28:44;100803.56;;;12.55;69.73
29371;BME280;16357;52.188;7.838;2023-02-19T00:33:40;100811.78;;;12.53;69.82
29371;BME280;16357;52.188;7.838;2023-02-19T00:36:07;100813.50;;;12.54;69.85
29371;BME280;16357;52.188;7.838;2023-02-19T00:38:38;100808.09;;;12.54;69.99
29371;BME280;16357;52.188;7.838;2023-02-19T00:41:05;100804.75;;;12.52;70.01
29371;BME280;16357;52.188;7.838;2023-02-19T00:46:19;100793.13;;;12.51;70.18
29371;BME280;16357;52.188;7.838;2023-02-19T00:48:46;100796.81;;;12.50;70.41
29371;BME280;16357;52.188;7.838;2023-02-19T00:51:12;100788.75;;;12.50;70.46
29371;BME280;16357;52.188;7.838;2023-02-19T00:53:39;100787.06;;;12.49;70.59
29371;BME280;16357;52.188;7.838;2023-02-19T00:56:07;100788.94;;;12.49;70.66
29371;BME280;16357;52.188;7.838;2023-02-19T00:58:33;100795.31;;;12.48;70.69
29371;BME280;16357;52.188;7.838;2023-02-19T01:01:00;100798.00;;;12.48;70.97
29371;BME280;16357;52.188;7.838;2023-02-19T01:03:26;100791.78;;;12.47;70.80
29371;BME280;16357;52.188;7.838;2023-02-19T01:05:53;100805.22;;;12.47;70.79
29371;BME280;16357;52.188;7.838;2023-02-19T01:08:20;100798.00;;;12.48;70.89
29371;BME280;16357;52.188;7.838;2023-02-19T01:10:46;100801.56;;;12.48;70.99
29371;BME280;16357;52.188;7.838;2023-02-19T01:13:13;100800.53;;;12.49;70.99
29371;BME280;16357;52.188;7.838;2023-02-19T01:15:39;100804.06;;;12.50;70.93
29371;BME280;16357;52.188;7.838;2023-02-19T01:18:06;100803.06;;;12.51;71.04
29371;BME280;16357;52.188;7.838;2023-02-19T01:20:33;100793.13;;;12.51;70.80
29371;BME280;16357;52.188;7.838;2023-02-19T01:22:59;100793.13;;;12.51;70.88
29371;BME280;16357;52.188;7.838;2023-02-19T01:25:26;100802.03;;;12.52;70.70
29371;BME280;16357;52.188;7.838;2023-02-19T01:27:52;100798.34;;;12.53;70.72
29371;BME280;16357;52.188;7.838;2023-02-19T01:30:18;100790.25;;;12.53;70.59
29371;BME280;16357;52.188;7.838;2023-02-19T01:32:45;100788.44;;;12.54;70.73
29371;BME280;16357;52.188;7.838;2023-02-19T01:35:11;100786.59;;;12.54;70.71
29371;BME280;16357;52.188;7.838;2023-02-19T01:37:37;100796.31;;;12.55;70.79
29371;BME280;16357;52.188;7.838;2023-02-19T01:40:04;100796.31;;;12.55;70.68
29371;BME280;16357;52.188;7.838;2023-02-19T01:42:31;100792.78;;;12.55;70.65
29371;BME280;16357;52.188;7.838;2023-02-19T01:45:20;100797.00;;;12.57;70.56
29371;BME280;16357;52.188;7.838;2023-02-19T01:47:52;100787.91;;;12.58;70.42
29371;BME280;16357;52.188;7.838;2023-02-19T01:50:20;100802.38;;;12.57;70.35
29371;BME280;16357;52.188;7.838;2023-02-19T01:52:47;100794.16;;;12.59;70.42
29371;BME280;16357;52.188;7.838;2023-02-19T01:55:13;100789.75;;;12.58;70.46
29371;BME280;16357;52.188;7.838;2023-02-19T01:57:43;100788.78;;;12.59;70.34
29371;BME280;16357;52.188;7.838;2023-02-19T02:00:13;100795.81;;;12.60;70.22
29371;BME280;16357;52.188;7.838;2023-02-19T02:02:42;100784.22;;;12.59;70.13
29371;BME280;16357;52.188;7.838;2023-02-19T02:05:53;100784.22;;;12.59;69.97
29371;BME280;16357;52.188;7.838;2023-02-19T02:08:09;100784.22;;;12.59;69.99
29371;BME280;16357;52.188;7.838;2023-02-19T02:10:56;100782.53;;;12.58;69.97
29371;BME280;16357;52.188;7.838;2023-02-19T02:13:23;100777.16;;;12.58;70.08
29371;BME280;16357;52.188;7.838;2023-02-19T02:16:03;100778.00;;;12.59;69.93
29371;BME280;16357;52.188;7.838;2023-02-19T02:18:58;100784.22;;;12.59;70.08
29371;BME280;16357;52.188;7.838;2023-02-19T02:32:32;100782.53;;;12.58;69.82
29371;BME280;16357;52.188;7.838;2023-02-19T02:35:07;100787.91;;;12.58;69.80
29371;BME280;16357;52.188;7.838;2023-02-19T02:37:37;100791.78;;;12.56;69.67
29371;BME280;16357;52.188;7.838;2023-02-19T02:40:06;100779.19;;;12.56;69.85
29371;BME280;16357;52.188;7.838;2023-02-19T02:42:34;100782.03;;;12.55;69.66
29371;BME280;16357;52.188;7.838;2023-02-19T02:45:21;100782.03;;;12.55;69.67
29371;BME280;16357;52.188;7.838;2023-02-19T02:51:33;100784.56;;;12.56;69.56
29371;BME280;16357;52.188;7.838;2023-02-19T02:54:23;100774.63;;;12.57;69.39
29371;BME280;16357;52.188;7.838;2023-02-19T02:57:10;100791.63;;;12.57;69.32
29371;BME280;16357;52.188;7.838;2023-02-19T02:59:41;100787.06;;;12.58;69.22
29371;BME280;16357;52.188;7.838;2023-02-19T03:02:17;100792.47;;;12.58;69.50
29371;BME280;16357;52.188;7.838;2023-02-19T03:05:05;100787.91;;;12.58;69.48
29371;BME280;16357;52.188;7.838;2023-02-19T03:10:44;100801.38;;;12.58;69.25
29371;BME280;16357;52.188;7.838;2023-02-19T03:13:34;100794.31;;;12.57;69.39
29371;BME280;16357;52.188;7.838;2023-02-19T03:16:27;100794.31;;;12.57;69.38
29371;BME280;16357;52.188;7.838;2023-02-19T03:19:18;100801.72;;;12.55;69.61
29371;BME280;16357;52.188;7.838;2023-02-19T03:21:50;100804.75;;;12.52;69.55
29371;BME280;16357;52.188;7.838;2023-02-19T03:24:20;100806.94;;;12.48;69.79
29371;BME280;16357;52.188;7.838;2023-02-19T03:27:07;100811.63;;;12.46;69.63
29371;BME280;16357;52.188;7.838;2023-02-19T03:29:36;100806.75;;;12.42;69.62
29371;BME280;16357;52.188;7.838;2023-02-19T03:32:08;100814.13;;;12.40;69.87
29371;BME280;16357;52.188;7.838;2023-02-19T03:34:43;100815.50;;;12.36;70.04
29371;BME280;16357;52.188;7.838;2023-02-19T03:37:16;100817.50;;;12.34;69.84
29371;BME280;16357;52.188;7.838;2023-02-19T03:39:44;100810.44;;;12.33;69.91
29371;BME280;16357;52.188;7.838;2023-02-19T03:45:26;100820.03;;;12.27;70.06
29371;BME280;16357;52.188;7.838;2023-02-19T03:53:10;100828.75;;;12.21;70.03
29371;BME280;16357;52.188;7.838;2023-02-19T03:58:28;100842.38;;;12.19;70.17
29371;BME280;16357;52.188;7.838;2023-02-19T04:01:04;100837.97;;;12.18;70.08
29371;BME280;16357;52.188;7.838;2023-02-19T04:03:40;100844.19;;;12.19;70.03
29371;BME280;16357;52.188;7.838;2023-02-19T04:06:13;100853.97;;;12.20;69.92
29371;BME280;16357;52.188;7.838;2023-02-19T04:08:44;100850.59;;;12.18;70.13
29371;BME280;16357;52.188;7.838;2023-02-19T04:11:13;100855.13;;;12.17;69.52
29371;BME280;16357;52.188;7.838;2023-02-19T04:13:55;100842.53;;;12.18;69.52
29371;BME280;16357;52.188;7.838;2023-02-19T04:16:26;100859.69;;;12.17;69.60
29371;BME280;16357;52.188;7.838;2023-02-19T04:18:58;100853.44;;;12.16;69.40
29371;BME280;16357;52.188;7.838;2023-02-19T04:21:30;100857.97;;;12.16;69.42
29371;BME280;16357;52.188;7.838;2023-02-19T04:24:01;100870.59;;;12.15;68.73
29371;BME280;16357;52.188;7.838;2023-02-19T04:26:28;100869.91;;;12.13;69.22
29371;BME280;16357;52.188;7.838;2023-02-19T04:28:56;100868.03;;;12.14;69.33
29371;BME280;16357;52.188;7.838;2023-02-19T04:31:23;100865.34;;;12.14;68.87
29371;BME280;16357;52.188;7.838;2023-02-19T04:33:50;100869.75;;;12.15;68.96
29371;BME280;16357;52.188;7.838;2023-02-19T04:36:17;100882.34;;;12.14;68.95
29371;BME280;16357;52.188;7.838;2023-02-19T04:38:44;100881.50;;;12.14;69.06
29371;BME280;16357;52.188;7.838;2023-02-19T04:41:10;100885.88;;;12.15;69.14
29371;BME280;16357;52.188;7.838;2023-02-19T04:43:37;100892.09;;;12.15;68.95
29371;BME280;16357;52.188;7.838;2023-02-19T04:46:03;100901.19;;;12.14;69.04
29371;BME280;16357;52.188;7.838;2023-02-19T04:48:30;100899.34;;;12.15;68.99
29371;BME280;16357;52.188;7.838;2023-02-19T04:50:56;100902.84;;;12.15;69.05
29371;BME280;16357;52.188;7.838;2023-02-19T04:53:23;100909.25;;;12.14;69.11
29371;BME280;16357;52.188;7.838;2023-02-19T04:55:49;100912.78;;;12.15;69.10
29371;BME280;16357;52.188;7.838;2023-02-19T04:58:18;100917.31;;;12.14;69.17
29371;BME280;16357;52.188;7.838;2023-02-19T05:00:45;100932.59;;;12.14;69.15
29371;BME280;16357;52.188;7.838;2023-02-19T05:03:11;100928.22;;;12.13;69.00
29371;BME280;16357;52.188;7.838;2023-02-19T05:05:38;100935.47;;;12.12;69.17
29371;BME280;16357;52.188;7.838;2023-02-19T05:08:04;100933.09;;;12.09;69.26
29371;BME280;16357;52.188;7.838;2023-02-19T05:10:31;100931.56;;;12.06;69.00
29371;BME280;16357;52.188;7.838;2023-02-19T05:12:58;100939.97;;;12.03;69.18
29371;BME280;16357;52.188;7.838;2023-02-19T05:15:25;100950.03;;;12.01;69.09
29371;BME280;16357;52.188;7.838;2023-02-19T05:17:51;100955.75;;;11.98;69.18
29371;BME280;16357;52.188;7.838;2023-02-19T05:20:17;100955.06;;;11.96;69.03
29371;BME280;16357;52.188;7.838;2023-02-19T05:22:44;100951.66;;;11.94;69.11
29371;BME280;16357;52.188;7.838;2023-02-19T05:25:10;100963.59;;;11.92;69.27
29371;BME280;16357;52.188;7.838;2023-02-19T05:27:36;100960.22;;;11.90;69.04
29371;BME280;16357;52.188;7.838;2023-02-19T05:30:03;100963.91;;;11.89;69.02
29371;BME280;16357;52.188;7.838;2023-02-19T05:32:29;100951.50;;;11.88;69.08
29371;BME280;16357;52.188;7.838;2023-02-19T05:34:56;100964.06;;;11.87;69.27
29371;BME280;16357;52.188;7.838;2023-02-19T05:37:22;100979.19;;;11.88;69.03
29371;BME280;16357;52.188;7.838;2023-02-19T05:39:49;100982.03;;;11.86;68.74
29371;BME280;16357;52.188;7.838;2023-02-19T05:42:15;100979.50;;;11.85;69.16
29371;BME280;16357;52.188;7.838;2023-02-19T05:44:42;100981.19;;;11.86;69.14
29371;BME280;16357;52.188;7.838;2023-02-19T05:47:08;101000.84;;;11.86;68.96
29371;BME280;16357;52.188;7.838;2023-02-19T05:49:35;100975.81;;;11.86;68.75
29371;BME280;16357;52.188;7.838;2023-02-19T05:52:01;100994.75;;;11.84;68.63
29371;BME280;16357;52.188;7.838;2023-02-19T05:54:28;100994.75;;;11.84;68.71
29371;BME280;16357;52.188;7.838;2023-02-19T05:56:55;101001.97;;;11.84;68.66
29371;BME280;16357;52.188;7.838;2023-02-19T05:59:23;101000.13;;;11.84;68.60
29371;BME280;16357;52.188;7.838;2023-02-19T06:01:51;101003.00;;;11.83;68.37
29371;BME280;16357;52.188;7.838;2023-02-19T06:04:18;101021.81;;;11.83;68.35
29371;BME280;16357;52.188;7.838;2023-02-19T06:06:46;101012.22;;;11.80;68.29
29371;BME280;16357;52.188;7.838;2023-02-19T06:09:12;101005.13;;;11.79;68.19
29371;BME280;16357;52.188;7.838;2023-02-19T06:11:39;101008.84;;;11.78;68.32
29371;BME280;16357;52.188;7.838;2023-02-19T06:14:05;101017.91;;;11.77;68.14
29371;BME280;16357;52.188;7.838;2023-02-19T06:16:32;101028.81;;;11.76;68.12
29371;BME280;16357;52.188;7.838;2023-02-19T06:19:03;101029.66;;;11.76;68.41
29371;BME280;16357;52.188;7.838;2023-02-19T06:21:30;101035.34;;;11.73;68.29
29371;BME280;16357;52.188;7.838;2023-02-19T06:23:56;101042.72;;;11.71;68.29
29371;BME280;16357;52.188;7.838;2023-02-19T06:26:23;101041.03;;;11.70;68.41
29371;BME280;16357;52.188;7.838;2023-02-19T06:28:51;101044.72;;;11.69;68.35
29371;BME280;16357;52.188;7.838;2023-02-19T06:31:21;101043.88;;;11.69;68.45
29371;BME280;16357;52.188;7.838;2023-02-19T06:33:48;101056.47;;;11.68;68.51
29371;BME280;16357;52.188;7.838;2023-02-19T06:36:17;101078.13;;;11.67;68.27
29371;BME280;16357;52.188;7.838;2023-02-19T06:38:44;101070.22;;;11.65;67.58
29371;BME280;16357;52.188;7.838;2023-02-19T06:41:11;101092.34;;;11.59;66.46
29371;BME280;16357;52.188;7.838;2023-02-19T06:43:38;101094.41;;;11.47;65.39
29371;BME280;16357;52.188;7.838;2023-02-19T06:46:05;101103.16;;;11.31;64.88
29371;BME280;16357;52.188;7.838;2023-02-19T06:48:34;101111.47;;;11.10;65.45
29371;BME280;16357;52.188;7.838;2023-02-19T06:51:00;101121.66;;;10.89;65.94
29371;BME280;16357;52.188;7.838;2023-02-19T06:53:27;101119.19;;;10.68;66.35
29371;BME280;16357;52.188;7.838;2023-02-19T06:55:58;101128.72;;;10.52;66.58
29371;BME280;16357;52.188;7.838;2023-02-19T06:58:26;101143.56;;;10.37;67.07
29371;BME280;16357;52.188;7.838;2023-02-19T07:00:52;101149.38;;;10.23;66.56
29371;BME280;16357;52.188;7.838;2023-02-19T07:03:19;101164.09;;;10.09;67.32
29371;BME280;16357;52.188;7.838;2023-02-19T07:05:46;101167.75;;;9.98;67.40
29371;BME280;16357;52.188;7.838;2023-02-19T07:08:12;101178.59;;;9.87;67.67
29371;BME280;16357;52.188;7.838;2023-02-19T07:10:38;101176.91;;;9.76;67.56
29371;BME280;16357;52.188;7.838;2023-02-19T07:13:05;101191.16;;;9.67;67.17
29371;BME280;16357;52.188;7.838;2023-02-19T07:15:31;101198.19;;;9.58;67.87
29371;BME280;16357;52.188;7.838;2023-02-19T07:17:58;101193.78;;;9.48;67.96
29371;BME280;16357;52.188;7.838;2023-02-19T07:20:25;101200.00;;;9.38;68.06
29371;BME280;16357;52.188;7.838;2023-02-19T07:22:51;101207.72;;;9.32;68.36
29371;BME280;16357;52.188;7.838;2023-02-19T07:25:18;101215.31;;;9.27;68.37
29371;BME280;16357;52.188;7.838;2023-02-19T07:27:44;101213.19;;;9.20;68.63
29371;BME280;16357;52.188;7.838;2023-02-19T07:30:10;101223.31;;;9.17;68.83
29371;BME280;16357;52.188;7.838;2023-02-19T07:32:40;101224.44;;;9.14;68.89
29371;BME280;16357;52.188;7.838;2023-02-19T07:35:07;101232.59;;;9.13;68.93
29371;BME280;16357;52.188;7.838;2023-02-19T07:37:33;101239.06;;;9.10;68.84
29371;BME280;16357;52.188;7.838;2023-02-19T07:40:00;101237.50;;;9.08;68.64
29371;BME280;16357;52.188;7.838;2023-02-19T07:42:26;101243.84;;;9.07;69.17
29371;BME280;16357;52.188;7.838;2023-02-19T07:44:52;101244.97;;;9.04;69.21
29371;BME280;16357;52.188;7.838;2023-02-19T07:47:19;101250.31;;;9.04;68.79
29371;BME280;16357;52.188;7.838;2023-02-19T07:49:45;101253.81;;;9.05;69.22
29371;BME280;16357;52.188;7.838;2023-02-19T07:52:11;101255.66;;;9.04;68.47
29371;BME280;16357;52.188;7.838;2023-02-19T07:54:38;101267.34;;;9.03;68.84
29371;BME280;16357;52.188;7.838;2023-02-19T07:57:04;101274.41;;;9.04;69.46
29371;BME280;16357;52.188;7.838;2023-02-19T07:59:31;101275.13;;;9.06;69.40
29371;BME280;16357;52.188;7.838;2023-02-19T08:01:57;101289.19;;;9.08;69.19
29371;BME280;16357;52.188;7.838;2023-02-19T08:04:42;101292.31;;;9.13;69.38
29371;BME280;16357;52.188;7.838;2023-02-19T08:07:08;101297.44;;;9.16;68.76
29371;BME280;16357;52.188;7.838;2023-02-19T08:09:35;101295.31;;;9.20;69.48
29371;BME280;16357;52.188;7.838;2023-02-19T08:12:01;101305.63;;;9.25;69.78
29371;BME280;16357;52.188;7.838;2023-02-19T08:14:46;101314.97;;;9.30;69.06
29371;BME280;16357;52.188;7.838;2023-02-19T08:17:12;101321.72;;;9.34;68.37
29371;BME280;16357;52.188;7.838;2023-02-19T08:19:39;101318.91;;;9.36;67.96
29371;BME280;16357;52.188;7.838;2023-02-19T08:22:05;101317.09;;;9.36;67.00
29371;BME280;16357;52.188;7.838;2023-02-19T08:24:32;101324.41;;;9.34;66.87
29371;BME280;16357;52.188;7.838;2023-02-19T08:26:59;101322.84;;;9.32;66.94
29371;BME280;16357;52.188;7.838;2023-02-19T08:29:26;101329.47;;;9.28;66.61
29371;BME280;16357;52.188;7.838;2023-02-19T08:31:52;101336.03;;;9.23;66.87
29371;BME280;16357;52.188;7.838;2023-02-19T08:34:18;101338.00;;;9.21;66.94
29371;BME280;16357;52.188;7.838;2023-02-19T08:36:45;101346.19;;;9.20;67.10
29371;BME280;16357;52.188;7.838;2023-02-19T08:39:11;101348.97;;;9.18;66.88
29371;BME280;16357;52.188;7.838;2023-02-19T08:41:37;101349.97;;;9.17;67.56
29371;BME280;16357;52.188;7.838;2023-02-19T08:44:04;101352.53;;;9.19;67.33
29371;BME280;16357;52.188;7.838;2023-02-19T08:46:30;101343.34;;;9.21;67.89
29371;BME280;16357;52.188;7.838;2023-02-19T08:48:59;101350.16;;;9.26;67.39
29371;BME280;16357;52.188;7.838;2023-02-19T08:51:25;101355.13;;;9.30;67.04
29371;BME280;16357;52.188;7.838;2023-02-19T08:53:52;101362.88;;;9.33;66.47
29371;BME280;16357;52.188;7.838;2023-02-19T08:56:18;101364.44;;;9.36;66.74
29371;BME280;16357;52.188;7.838;2023-02-19T08:58:45;101368.81;;;9.37;66.25
29371;BME280;16357;52.188;7.838;2023-02-19T09:01:17;101376.72;;;9.38;65.90
29371;BME280;16357;52.188;7.838;2023-02-19T09:03:44;101369.69;;;9.37;65.80
29371;BME280;16357;52.188;7.838;2023-02-19T09:06:16;101379.50;;;9.37;66.19
29371;BME280;16357;52.188;7.838;2023-02-19T09:08:42;101382.34;;;9.35;65.71
29371;BME280;16357;52.188;7.838;2023-02-19T09:11:09;101386.13;;;9.33;65.98
29371;BME280;16357;52.188;7.838;2023-02-19T09:13:36;101397.81;;;9.32;65.55
29371;BME280;16357;52.188;7.838;2023-02-19T09:16:03;101406.84;;;9.31;65.53
29371;BME280;16357;52.188;7.838;2023-02-19T09:18:30;101407.09;;;9.28;65.86
29371;BME280;16357;52.188;7.838;2023-02-19T09:21:01;101416.09;;;9.27;65.76
29371;BME280;16357;52.188;7.838;2023-02-19T09:23:32;101418.06;;;9.25;65.49
29371;BME280;16357;52.188;7.838;2023-02-19T09:25:59;101429.03;;;9.21;65.89
29371;BME280;16357;52.188;7.838;2023-02-19T09:28:26;101442.56;;;9.20;66.19
29371;BME280;16357;52.188;7.838;2023-02-19T09:30:53;101447.06;;;9.19;66.51
29371;BME280;16357;52.188;7.838;2023-02-19T09:33:19;101444.38;;;9.19;66.28
29371;BME280;16357;52.188;7.838;2023-02-19T09:35:46;101455.78;;;9.21;66.17
29371;BME280;16357;52.188;7.838;2023-02-19T09:38:12;101459.19;;;9.23;66.16
29371;BME280;16357;52.188;7.838;2023-02-19T09:40:39;101460.78;;;9.26;65.71
29371;BME280;16357;52.188;7.838;2023-02-19T09:43:08;101479.25;;;9.29;65.93
29371;BME280;16357;52.188;7.838;2023-02-19T09:45:38;101478.41;;;9.29;65.53
29371;BME280;16357;52.188;7.838;2023-02-19T09:48:05;101487.16;;;9.31;65.85
29371;BME280;16357;52.188;7.838;2023-02-19T09:50:38;101485.22;;;9.33;65.99
29371;BME280;16357;52.188;7.838;2023-02-19T09:53:15;101492.13;;;9.35;65.92
29371;BME280;16357;52.188;7.838;2023-02-19T09:55:43;101485.66;;;9.38;65.98
29371;BME280;16357;52.188;7.838;2023-02-19T09:58:21;101488.94;;;9.41;65.94
29371;BME280;16357;52.188;7.838;2023-02-19T10:00:51;101503.88;;;9.44;65.96
29371;BME280;16357;52.188;7.838;2023-02-19T10:03:28;101515.06;;;9.49;65.94
29371;BME280;16357;52.188;7.838;2023-02-19T10:06:17;101533.53;;;9.52;65.94
29371;BME280;16357;52.188;7.838;2023-02-19T10:20:35;101554.16;;;8.31;69.70
29371;BME280;16357;52.188;7.838;2023-02-19T10:23:04;101555.88;;;8.43;69.51
29371;BME280;16357;52.188;7.838;2023-02-19T10:25:33;101564.03;;;8.64;69.22
29371;BME280;16357;52.188;7.838;2023-02-19T10:28:01;101579.16;;;8.86;68.23
29371;BME280;16357;52.188;7.838;2023-02-19T10:30:30;101580.22;;;9.06;67.68
29371;BME280;16357;52.188;7.838;2023-02-19T10:35:36;101551.38;;;9.42;67.60
29371;BME280;16357;52.188;7.838;2023-02-19T10:38:04;101557.84;;;9.60;67.74
29371;BME280;16357;52.188;7.838;2023-02-19T10:40:32;101565.16;;;9.79;66.74
29371;BME280;16357;52.188;7.838;2023-02-19T10:43:02;101568.38;;;9.94;66.01
29371;BME280;16357;52.188;7.838;2023-02-19T10:45:45;101575.81;;;10.11;66.42
29371;BME280;16357;52.188;7.838;2023-02-19T10:48:23;101583.25;;;10.29;66.62
29371;BME280;16357;52.188;7.838;2023-02-19T10:50:52;101570.22;;;10.45;65.40
29371;BME280;16357;52.188;7.838;2023-02-19T10:53:35;101570.28;;;10.65;65.57
29371;BME280;16357;52.188;7.838;2023-02-19T10:58:41;101582.66;;;10.96;63.17
29371;BME280;16357;52.188;7.838;2023-02-19T11:03:37;101579.31;;;11.14;61.93
29371;BME280;16357;52.188;7.838;2023-02-19T11:06:05;101585.78;;;11.21;61.85
29371;BME280;16357;52.188;7.838;2023-02-19T11:08:49;101590.75;;;11.26;62.10
29371;BME280;16357;52.188;7.838;2023-02-19T11:11:34;101601.94;;;11.31;61.97
29371;BME280;16357;52.188;7.838;2023-02-19T11:14:04;101595.31;;;11.35;61.39
29371;BME280;16357;52.188;7.838;2023-02-19T11:16:45;101588.09;;;11.35;60.64
29371;BME280;16357;52.188;7.838;2023-02-19T11:19:35;101587.06;;;11.36;60.91
29371;BME280;16357;52.188;7.838;2023-02-19T11:24:51;101585.41;;;11.35;60.30
29371;BME280;16357;52.188;7.838;2023-02-19T11:27:23;101587.38;;;11.33;59.54
29371;BME280;16357;52.188;7.838;2023-02-19T11:29:50;101579.59;;;11.30;58.92
29371;BME280;16357;52.188;7.838;2023-02-19T11:32:22;101580.84;;;11.26;59.52
29371;BME280;16357;52.188;7.838;2023-02-19T11:34:51;101581.41;;;11.20;58.76
29371;BME280;16357;52.188;7.838;2023-02-19T11:37:19;101575.63;;;11.15;58.95
29371;BME280;16357;52.188;7.838;2023-02-19T11:39:48;101584.94;;;11.11;58.86
29371;BME280;16357;52.188;7.838;2023-02-19T11:42:42;101578.28;;;11.05;59.16
29371;BME280;16357;52.188;7.838;2023-02-19T11:45:26;101573.91;;;11.04;59.87
29371;BME280;16357;52.188;7.838;2023-02-19T11:51:01;101576.63;;;11.14;60.51
29371;BME280;16357;52.188;7.838;2023-02-19T11:53:32;101578.31;;;11.25;59.61
29371;BME280;16357;52.188;7.838;2023-02-19T11:56:10;101572.25;;;11.32;59.53
29371;BME280;16357;52.188;7.838;2023-02-19T12:09:40;101572.91;;;11.93;58.57
29371;BME280;16357;52.188;7.838;2023-02-19T12:12:25;101577.31;;;12.03;57.97
29371;BME280;16357;52.188;7.838;2023-02-19T12:15:08;101581.78;;;12.13;58.07
29371;BME280;16357;52.188;7.838;2023-02-19T12:32:29;101591.78;;;12.67;57.06
29371;BME280;16357;52.188;7.838;2023-02-19T12:35:17;101596.44;;;12.75;56.79
29371;BME280;16357;52.188;7.838;2023-02-19T12:41:04;101600.44;;;12.89;55.04
29371;BME280;16357;52.188;7.838;2023-02-19T12:43:43;101604.56;;;12.93;54.70
29371;BME280;16357;52.188;7.838;2023-02-19T12:46:17;101607.91;;;12.95;54.81
29371;BME280;16357;52.188;7.838;2023-02-19T12:48:57;101615.88;;;12.96;54.55
29371;BME280;16357;52.188;7.838;2023-02-19T12:54:29;101623.50;;;13.01;54.93
29371;BME280;16357;52.188;7.838;2023-02-19T12:57:03;101614.09;;;13.05;53.67
29371;BME280;16357;52.188;7.838;2023-02-19T12:59:47;101609.81;;;13.12;54.39
29371;BME280;16357;52.188;7.838;2023-02-19T13:02:21;101611.22;;;13.16;54.01
29371;BME280;16357;52.188;7.838;2023-02-19T13:07:32;101611.31;;;13.25;54.17
29371;BME280;16357;52.188;7.838;2023-02-19T13:12:44;101612.28;;;13.24;53.41
29371;BME280;16357;52.188;7.838;2023-02-19T13:15:28;101610.72;;;13.21;53.22
29371;BME280;16357;52.188;7.838;2023-02-19T13:17:57;101615.28;;;13.21;52.80
29371;BME280;16357;52.188;7.838;2023-02-19T13:20:40;101616.97;;;13.22;52.60
29371;BME280;16357;52.188;7.838;2023-02-19T13:23:17;101612.72;;;13.19;52.15
29371;BME280;16357;52.188;7.838;2023-02-19T13:29:07;101615.91;;;13.14;52.09
29371;BME280;16357;52.188;7.838;2023-02-19T13:37:33;101629.41;;;13.05;51.66
29371;BME280;16357;52.188;7.838;2023-02-19T13:40:04;101622.78;;;12.99;51.39
29371;BME280;16357;52.188;7.838;2023-02-19T13:42:33;101622.69;;;12.91;51.27
29371;BME280;16357;52.188;7.838;2023-02-19T13:45:03;101624.16;;;12.85;51.86
29371;BME280;16357;52.188;7.838;2023-02-19T13:50:30;101636.50;;;12.78;52.22
29371;BME280;16357;52.188;7.838;2023-02-19T13:52:58;101640.47;;;12.74;51.57
29371;BME280;16357;52.188;7.838;2023-02-19T13:58:35;101636.72;;;12.67;52.20
29371;BME280;16357;52.188;7.838;2023-02-19T14:01:06;101653.16;;;12.64;51.78
29371;BME280;16357;52.188;7.838;2023-02-19T14:06:04;101656.59;;;12.56;51.48
29371;BME280;16357;52.188;7.838;2023-02-19T14:08:56;101657.03;;;12.51;51.51
29371;BME280;16357;52.188;7.838;2023-02-19T14:16:58;101678.56;;;12.32;51.70
29371;BME280;16357;52.188;7.838;2023-02-19T14:30:32;101685.72;;;11.94;52.00
29371;BME280;16357;52.188;7.838;2023-02-19T14:33:00;101687.00;;;11.90;52.37
29371;BME280;16357;52.188;7.838;2023-02-19T14:35:41;101671.00;;;11.89;52.89
29371;BME280;16357;52.188;7.838;2023-02-19T14:38:16;101678.22;;;11.88;52.73
29371;BME280;16357;52.188;7.838;2023-02-19T14:40:46;101676.38;;;11.89;52.21
29371;BME280;16357;52.188;7.838;2023-02-19T14:43:16;101679.91;;;11.89;52.39
29371;BME280;16357;52.188;7.838;2023-02-19T14:45:48;101662.94;;;11.89;52.53
29371;BME280;16357;52.188;7.838;2023-02-19T14:48:21;101662.81;;;11.90;52.94
29371;BME280;16357;52.188;7.838;2023-02-19T14:50:52;101648.34;;;11.91;52.95
29371;BME280;16357;52.188;7.838;2023-02-19T14:53:22;101639.28;;;11.92;52.62
29371;BME280;16357;52.188;7.838;2023-02-19T14:55:50;101639.00;;;11.95;52.60
29371;BME280;16357;52.188;7.838;2023-02-19T14:58:23;101626.97;;;11.99;52.91
29371;BME280;16357;52.188;7.838;2023-02-19T15:00:51;101620.47;;;12.02;52.83
29371;BME280;16357;52.188;7.838;2023-02-19T15:03:28;101622.56;;;12.08;52.79
29371;BME280;16357;52.188;7.838;2023-02-19T15:06:01;101632.91;;;12.13;52.56
29371;BME280;16357;52.188;7.838;2023-02-19T15:08:37;101619.03;;;12.17;52.61
29371;BME280;16357;52.188;7.838;2023-02-19T15:11:18;101607.97;;;12.20;52.80
29371;BME280;16357;52.188;7.838;2023-02-19T15:13:49;101598.63;;;12.24;52.90
29371;BME280;16357;52.188;7.838;2023-02-19T15:16:30;101585.53;;;12.29;53.16
29371;BME280;16357;52.188;7.838;2023-02-19T15:18:58;101586.97;;;12.34;52.41
29371;BME280;16357;52.188;7.838;2023-02-19T15:21:31;101591.59;;;12.41;52.87